Terminal Aerodrome Forecast
Issued by NWS Tuscon, AZ

Home | Current Version | Previous Version | Text Only | Print | Product List | Glossary On
Versions: 1 2 3 4 5 6 7 8 9 10 11 12 13 14 15 16 17 18 19 20 21
000
FTUS45 KTWC 012333
TAFTUS
TAF
KTUS 012333Z 0200/0224 29010KT P6SM VCSH SCT100 BKN250
     FM020300 25007KT P6SM SCT100 BKN250
     FM020500 16005KT P6SM FEW100 SCT250
     FM021800 29007KT P6SM SCT100=

USA.gov is the U.S. government's official web portal to all federal, state and local government web resources and services.